sensor_id;sensor_type;location;lat;lon;timestamp;pressure;altitude;pressure_sealevel;temperature;humidity
19210;BME280;9738;51.654;14.238;2023-04-03T00:00:10;101741.19;;;1.07;100.00
19210;BME280;9738;51.654;14.238;2023-04-03T00:02:36;101735.06;;;1.07;100.00
19210;BME280;9738;51.654;14.238;2023-04-03T00:05:02;101739.47;;;1.06;100.00
19210;BME280;9738;51.654;14.238;2023-04-03T00:07:28;101736.16;;;1.01;100.00
19210;BME280;9738;51.654;14.238;2023-04-03T00:09:54;101737.94;;;1.01;100.00
19210;BME280;9738;51.654;14.238;2023-04-03T00:12:20;101742.41;;;0.99;100.00
19210;BME280;9738;51.654;14.238;2023-04-03T00:14:46;101744.41;;;0.92;100.00
19210;BME280;9738;51.654;14.238;2023-04-03T00:17:12;101736.66;;;0.89;100.00
19210;BME280;9738;51.654;14.238;2023-04-03T00:19:38;101742.81;;;0.88;100.00
19210;BME280;9738;51.654;14.238;2023-04-03T00:22:04;101750.84;;;0.85;100.00
19210;BME280;9738;51.654;14.238;2023-04-03T00:24:30;101745.66;;;0.82;100.00
19210;BME280;9738;51.654;14.238;2023-04-03T00:26:56;101747.63;;;0.77;100.00
19210;BME280;9738;51.654;14.238;2023-04-03T00:29:22;101755.69;;;0.72;100.00
19210;BME280;9738;51.654;14.238;2023-04-03T00:31:47;101756.63;;;0.70;100.00
19210;BME280;9738;51.654;14.238;2023-04-03T00:34:14;101744.53;;;0.66;100.00
19210;BME280;9738;51.654;14.238;2023-04-03T00:36:39;101755.16;;;0.63;100.00
19210;BME280;9738;51.654;14.238;2023-04-03T00:39:05;101748.31;;;0.59;100.00
19210;BME280;9738;51.654;14.238;2023-04-03T00:41:32;101749.25;;;0.56;100.00
19210;BME280;9738;51.654;14.238;2023-04-03T00:43:57;101752.75;;;0.57;100.00
19210;BME280;9738;51.654;14.238;2023-04-03T00:46:23;101756.41;;;0.52;100.00
19210;BME280;9738;51.654;14.238;2023-04-03T00:48:50;101754.78;;;0.48;100.00
19210;BME280;9738;51.654;14.238;2023-04-03T00:51:25;101755.13;;;0.39;100.00
19210;BME280;9738;51.654;14.238;2023-04-03T00:53:58;101755.22;;;0.36;100.00
19210;BME280;9738;51.654;14.238;2023-04-03T00:56:27;101758.91;;;0.31;100.00
19210;BME280;9738;51.654;14.238;2023-04-03T01:01:26;101754.91;;;0.20;100.00
19210;BME280;9738;51.654;14.238;2023-04-03T01:03:52;101756.97;;;0.11;100.00
19210;BME280;9738;51.654;14.238;2023-04-03T01:06:23;101761.53;;;0.06;100.00
19210;BME280;9738;51.654;14.238;2023-04-03T01:08:50;101759.94;;;0.02;100.00
19210;BME280;9738;51.654;14.238;2023-04-03T01:11:17;101763.69;;;-0.07;100.00
19210;BME280;9738;51.654;14.238;2023-04-03T01:13:43;101762.25;;;-0.16;100.00
19210;BME280;9738;51.654;14.238;2023-04-03T01:16:09;101763.25;;;-0.20;100.00
19210;BME280;9738;51.654;14.238;2023-04-03T01:18:37;101766.91;;;-0.24;100.00
19210;BME280;9738;51.654;14.238;2023-04-03T01:21:25;101768.69;;;-0.26;100.00
19210;BME280;9738;51.654;14.238;2023-04-03T01:24:22;101763.66;;;-0.32;100.00
19210;BME280;9738;51.654;14.238;2023-04-03T01:26:53;101773.34;;;-0.34;100.00
19210;BME280;9738;51.654;14.238;2023-04-03T01:29:19;101768.28;;;-0.40;100.00
19210;BME280;9738;51.654;14.238;2023-04-03T01:31:51;101770.16;;;-0.44;100.00
19210;BME280;9738;51.654;14.238;2023-04-03T01:34:17;101770.38;;;-0.50;100.00
19210;BME280;9738;51.654;14.238;2023-04-03T01:36:43;101774.94;;;-0.57;100.00
19210;BME280;9738;51.654;14.238;2023-04-03T01:39:09;101771.59;;;-0.62;100.00
19210;BME280;9738;51.654;14.238;2023-04-03T01:41:36;101767.28;;;-0.64;100.00
19210;BME280;9738;51.654;14.238;2023-04-03T01:44:02;101783.22;;;-0.70;100.00
19210;BME280;9738;51.654;14.238;2023-04-03T01:46:27;101783.31;;;-0.73;100.00
19210;BME280;9738;51.654;14.238;2023-04-03T01:48:54;101787.75;;;-0.75;100.00
19210;BME280;9738;51.654;14.238;2023-04-03T01:51:20;101783.50;;;-0.79;100.00
19210;BME280;9738;51.654;14.238;2023-04-03T01:53:45;101785.44;;;-0.86;100.00
19210;BME280;9738;51.654;14.238;2023-04-03T01:56:12;101782.03;;;-0.88;100.00
19210;BME280;9738;51.654;14.238;2023-04-03T01:58:37;101791.69;;;-0.90;100.00
19210;BME280;9738;51.654;14.238;2023-04-03T02:01:04;101792.72;;;-0.96;100.00
19210;BME280;9738;51.654;14.238;2023-04-03T02:03:30;101795.38;;;-0.97;100.00
19210;BME280;9738;51.654;14.238;2023-04-03T02:05:56;101786.78;;;-1.02;100.00
19210;BME280;9738;51.654;14.238;2023-04-03T02:08:22;101795.66;;;-1.06;100.00
19210;BME280;9738;51.654;14.238;2023-04-03T02:10:49;101792.22;;;-1.09;100.00
19210;BME280;9738;51.654;14.238;2023-04-03T02:13:16;101793.22;;;-1.13;100.00
19210;BME280;9738;51.654;14.238;2023-04-03T02:15:42;101796.00;;;-1.19;100.00
19210;BME280;9738;51.654;14.238;2023-04-03T02:18:09;101797.84;;;-1.21;100.00
19210;BME280;9738;51.654;14.238;2023-04-03T02:20:35;101797.91;;;-1.24;100.00
19210;BME280;9738;51.654;14.238;2023-04-03T02:23:01;101797.13;;;-1.27;100.00
19210;BME280;9738;51.654;14.238;2023-04-03T02:25:28;101799.88;;;-1.32;100.00
19210;BME280;9738;51.654;14.238;2023-04-03T02:27:53;101803.47;;;-1.36;100.00
19210;BME280;9738;51.654;14.238;2023-04-03T02:30:19;101808.81;;;-1.39;100.00
19210;BME280;9738;51.654;14.238;2023-04-03T02:32:46;101804.56;;;-1.43;100.00
19210;BME280;9738;51.654;14.238;2023-04-03T02:35:11;101806.38;;;-1.45;100.00
19210;BME280;9738;51.654;14.238;2023-04-03T02:37:37;101809.09;;;-1.50;100.00
19210;BME280;9738;51.654;14.238;2023-04-03T02:40:05;101810.91;;;-1.52;100.00
19210;BME280;9738;51.654;14.238;2023-04-03T02:42:31;101807.44;;;-1.52;100.00
19210;BME280;9738;51.654;14.238;2023-04-03T02:44:57;101817.13;;;-1.56;100.00
19210;BME280;9738;51.654;14.238;2023-04-03T02:47:23;101816.25;;;-1.56;100.00
19210;BME280;9738;51.654;14.238;2023-04-03T02:49:49;101819.03;;;-1.63;100.00
19210;BME280;9738;51.654;14.238;2023-04-03T02:52:15;101817.31;;;-1.64;100.00
19210;BME280;9738;51.654;14.238;2023-04-03T02:54:41;101826.09;;;-1.65;100.00
19210;BME280;9738;51.654;14.238;2023-04-03T02:57:07;101820.88;;;-1.66;100.00
19210;BME280;9738;51.654;14.238;2023-04-03T02:59:36;101820.97;;;-1.69;100.00
19210;BME280;9738;51.654;14.238;2023-04-03T03:02:02;101828.81;;;-1.69;100.00
19210;BME280;9738;51.654;14.238;2023-04-03T03:04:28;101827.16;;;-1.73;100.00
19210;BME280;9738;51.654;14.238;2023-04-03T03:06:54;101823.78;;;-1.77;100.00
19210;BME280;9738;51.654;14.238;2023-04-03T03:09:21;101822.13;;;-1.81;100.00
19210;BME280;9738;51.654;14.238;2023-04-03T03:11:46;101824.84;;;-1.84;100.00
19210;BME280;9738;51.654;14.238;2023-04-03T03:14:12;101831.03;;;-1.88;100.00
19210;BME280;9738;51.654;14.238;2023-04-03T03:16:39;101830.22;;;-1.90;100.00
19210;BME280;9738;51.654;14.238;2023-04-03T03:19:05;101838.06;;;-1.90;100.00
19210;BME280;9738;51.654;14.238;2023-04-03T03:21:32;101838.94;;;-1.91;100.00
19210;BME280;9738;51.654;14.238;2023-04-03T03:23:58;101828.53;;;-1.93;100.00
19210;BME280;9738;51.654;14.238;2023-04-03T03:26:24;101833.81;;;-1.94;100.00
19210;BME280;9738;51.654;14.238;2023-04-03T03:28:50;101836.47;;;-1.96;100.00
19210;BME280;9738;51.654;14.238;2023-04-03T03:31:16;101837.38;;;-1.97;100.00
19210;BME280;9738;51.654;14.238;2023-04-03T03:33:42;101828.75;;;-2.02;100.00
19210;BME280;9738;51.654;14.238;2023-04-03T03:36:08;101838.44;;;-2.05;100.00
19210;BME280;9738;51.654;14.238;2023-04-03T03:38:34;101839.41;;;-2.09;100.00
19210;BME280;9738;51.654;14.238;2023-04-03T03:41:00;101838.56;;;-2.11;100.00
19210;BME280;9738;51.654;14.238;2023-04-03T03:43:27;101842.09;;;-2.12;100.00
19210;BME280;9738;51.654;14.238;2023-04-03T03:45:54;101842.19;;;-2.17;100.00
19210;BME280;9738;51.654;14.238;2023-04-03T03:48:20;101842.25;;;-2.19;100.00
19210;BME280;9738;51.654;14.238;2023-04-03T03:50:47;101845.75;;;-2.20;100.00
19210;BME280;9738;51.654;14.238;2023-04-03T03:53:14;101844.94;;;-2.22;100.00
19210;BME280;9738;51.654;14.238;2023-04-03T03:55:40;101851.06;;;-2.23;100.00
19210;BME280;9738;51.654;14.238;2023-04-03T03:58:06;101850.19;;;-2.23;100.00
19210;BME280;9738;51.654;14.238;2023-04-03T04:00:33;101854.56;;;-2.24;100.00
19210;BME280;9738;51.654;14.238;2023-04-03T04:02:58;101851.13;;;-2.26;100.00
19210;BME280;9738;51.654;14.238;2023-04-03T04:05:24;101852.06;;;-2.28;100.00
19210;BME280;9738;51.654;14.238;2023-04-03T04:07:51;101850.28;;;-2.26;100.00
19210;BME280;9738;51.654;14.238;2023-04-03T04:10:16;101845.91;;;-2.26;100.00
19210;BME280;9738;51.654;14.238;2023-04-03T04:12:42;101847.75;;;-2.31;100.00
19210;BME280;9738;51.654;14.238;2023-04-03T04:15:09;101847.72;;;-2.29;100.00
19210;BME280;9738;51.654;14.238;2023-04-03T04:17:35;101851.28;;;-2.32;100.00
19210;BME280;9738;51.654;14.238;2023-04-03T04:20:03;101848.66;;;-2.32;100.00
19210;BME280;9738;51.654;14.238;2023-04-03T04:22:31;101854.78;;;-2.33;100.00
19210;BME280;9738;51.654;14.238;2023-04-03T04:24:57;101858.25;;;-2.32;100.00
19210;BME280;9738;51.654;14.238;2023-04-03T04:27:22;101857.44;;;-2.34;100.00
19210;BME280;9738;51.654;14.238;2023-04-03T04:29:49;101858.34;;;-2.37;100.00
19210;BME280;9738;51.654;14.238;2023-04-03T04:32:14;101849.69;;;-2.39;100.00
19210;BME280;9738;51.654;14.238;2023-04-03T04:34:40;101854.09;;;-2.41;100.00
19210;BME280;9738;51.654;14.238;2023-04-03T04:37:06;101855.78;;;-2.38;100.00
19210;BME280;9738;51.654;14.238;2023-04-03T04:39:32;101860.16;;;-2.39;100.00
19210;BME280;9738;51.654;14.238;2023-04-03T04:41:58;101861.88;;;-2.38;100.00
19210;BME280;9738;51.654;14.238;2023-04-03T04:44:26;101864.50;;;-2.38;100.00
19210;BME280;9738;51.654;14.238;2023-04-03T04:46:52;101866.25;;;-2.38;100.00
19210;BME280;9738;51.654;14.238;2023-04-03T04:49:18;101866.19;;;-2.35;100.00
19210;BME280;9738;51.654;14.238;2023-04-03T04:51:44;101869.63;;;-2.33;100.00
19210;BME280;9738;51.654;14.238;2023-04-03T04:54:10;101871.38;;;-2.34;100.00
19210;BME280;9738;51.654;14.238;2023-04-03T04:56:35;101867.88;;;-2.33;100.00
19210;BME280;9738;51.654;14.238;2023-04-03T04:59:02;101879.16;;;-2.31;100.00
19210;BME280;9738;51.654;14.238;2023-04-03T05:01:27;101876.53;;;-2.31;100.00
19210;BME280;9738;51.654;14.238;2023-04-03T05:03:54;101876.50;;;-2.29;100.00
19210;BME280;9738;51.654;14.238;2023-04-03T05:06:21;101880.72;;;-2.24;100.00
19210;BME280;9738;51.654;14.238;2023-04-03T05:08:46;101884.19;;;-2.22;100.00
19210;BME280;9738;51.654;14.238;2023-04-03T05:11:12;101876.25;;;-2.19;100.00
19210;BME280;9738;51.654;14.238;2023-04-03T05:13:38;101881.44;;;-2.15;100.00
19210;BME280;9738;51.654;14.238;2023-04-03T05:16:04;101885.63;;;-2.08;100.00
19210;BME280;9738;51.654;14.238;2023-04-03T05:18:30;101876.75;;;-2.01;100.00
19210;BME280;9738;51.654;14.238;2023-04-03T05:20:56;101889.69;;;-1.95;100.00
19210;BME280;9738;51.654;14.238;2023-04-03T05:23:24;101895.59;;;-1.87;100.00
19210;BME280;9738;51.654;14.238;2023-04-03T05:25:50;101888.50;;;-1.82;100.00
19210;BME280;9738;51.654;14.238;2023-04-03T05:28:16;101891.78;;;-1.74;100.00
19210;BME280;9738;51.654;14.238;2023-04-03T05:30:42;101891.44;;;-1.58;100.00
19210;BME280;9738;51.654;14.238;2023-04-03T05:33:08;101896.16;;;-1.40;100.00
19210;BME280;9738;51.654;14.238;2023-04-03T05:35:36;101892.19;;;-1.21;100.00
19210;BME280;9738;51.654;14.238;2023-04-03T05:38:05;101892.00;;;-1.13;100.00
19210;BME280;9738;51.654;14.238;2023-04-03T05:40:31;101894.72;;;-1.18;100.00
19210;BME280;9738;51.654;14.238;2023-04-03T05:42:57;101897.25;;;-1.15;100.00
19210;BME280;9738;51.654;14.238;2023-04-03T05:45:23;101897.09;;;-1.09;100.00
19210;BME280;9738;51.654;14.238;2023-04-03T05:47:49;101898.50;;;-0.95;100.00
19210;BME280;9738;51.654;14.238;2023-04-03T05:50:15;101900.56;;;-0.75;100.00
19210;BME280;9738;51.654;14.238;2023-04-03T05:52:44;101901.28;;;-0.41;100.00
19210;BME280;9738;51.654;14.238;2023-04-03T05:55:11;101895.97;;;-0.10;100.00
19210;BME280;9738;51.654;14.238;2023-04-03T05:57:37;101898.63;;;0.17;100.00
19210;BME280;9738;51.654;14.238;2023-04-03T06:00:05;101893.44;;;0.42;100.00
19210;BME280;9738;51.654;14.238;2023-04-03T06:02:31;101899.09;;;0.56;100.00
19210;BME280;9738;51.654;14.238;2023-04-03T06:04:58;101904.06;;;0.65;100.00
19210;BME280;9738;51.654;14.238;2023-04-03T06:07:24;101903.78;;;0.73;100.00
19210;BME280;9738;51.654;14.238;2023-04-03T06:09:55;101902.09;;;0.72;100.00
19210;BME280;9738;51.654;14.238;2023-04-03T06:12:22;101903.44;;;0.84;100.00
19210;BME280;9738;51.654;14.238;2023-04-03T06:14:48;101906.16;;;0.80;100.00
19210;BME280;9738;51.654;14.238;2023-04-03T06:17:15;101906.84;;;0.86;100.00
19210;BME280;9738;51.654;14.238;2023-04-03T06:19:42;101907.88;;;1.06;100.00
19210;BME280;9738;51.654;14.238;2023-04-03T06:22:08;101902.66;;;1.30;100.00
19210;BME280;9738;51.654;14.238;2023-04-03T06:24:34;101909.31;;;1.40;100.00
19210;BME280;9738;51.654;14.238;2023-04-03T06:27:02;101916.94;;;1.46;100.00
19210;BME280;9738;51.654;14.238;2023-04-03T06:29:27;101914.84;;;1.56;100.00
19210;BME280;9738;51.654;14.238;2023-04-03T06:31:53;101912.06;;;1.59;100.00
19210;BME280;9738;51.654;14.238;2023-04-03T06:34:19;101910.81;;;1.69;100.00
19210;BME280;9738;51.654;14.238;2023-04-03T06:36:45;101921.44;;;1.89;100.00
19210;BME280;9738;51.654;14.238;2023-04-03T06:39:15;101915.47;;;1.86;100.00
19210;BME280;9738;51.654;14.238;2023-04-03T06:41:42;101916.63;;;1.79;100.00
19210;BME280;9738;51.654;14.238;2023-04-03T06:44:08;101919.50;;;1.71;100.00
19210;BME280;9738;51.654;14.238;2023-04-03T06:46:37;101920.66;;;1.64;100.00
19210;BME280;9738;51.654;14.238;2023-04-03T06:49:05;101921.50;;;1.66;100.00
19210;BME280;9738;51.654;14.238;2023-04-03T06:51:33;101926.63;;;1.69;100.00
19210;BME280;9738;51.654;14.238;2023-04-03T06:53:59;101937.00;;;1.74;100.00
19210;BME280;9738;51.654;14.238;2023-04-03T06:56:26;101941.56;;;1.69;100.00
19210;BME280;9738;51.654;14.238;2023-04-03T06:58:53;101934.03;;;1.59;100.00
19210;BME280;9738;51.654;14.238;2023-04-03T07:01:28;101936.13;;;1.50;100.00
19210;BME280;9738;51.654;14.238;2023-04-03T07:03:54;101939.56;;;1.52;100.00
19210;BME280;9738;51.654;14.238;2023-04-03T07:06:21;101941.88;;;1.61;100.00
19210;BME280;9738;51.654;14.238;2023-04-03T07:08:47;101941.28;;;1.76;100.00
19210;BME280;9738;51.654;14.238;2023-04-03T07:11:16;101948.41;;;1.96;100.00
19210;BME280;9738;51.654;14.238;2023-04-03T07:13:42;101952.28;;;2.09;100.00
19210;BME280;9738;51.654;14.238;2023-04-03T07:16:09;101948.47;;;2.18;100.00
19210;BME280;9738;51.654;14.238;2023-04-03T07:18:35;101956.44;;;2.38;100.00
19210;BME280;9738;51.654;14.238;2023-04-03T07:21:02;101946.91;;;2.56;100.00
19210;BME280;9738;51.654;14.238;2023-04-03T07:23:29;101952.16;;;2.78;100.00
19210;BME280;9738;51.654;14.238;2023-04-03T07:25:55;101948.91;;;2.92;100.00
19210;BME280;9738;51.654;14.238;2023-04-03T07:28:22;101945.50;;;3.10;100.00
19210;BME280;9738;51.654;14.238;2023-04-03T07:31:01;101948.50;;;3.42;100.00
19210;BME280;9738;51.654;14.238;2023-04-03T07:33:26;101946.84;;;3.78;100.00
19210;BME280;9738;51.654;14.238;2023-04-03T07:35:53;101941.66;;;4.13;77.26
19210;BME280;9738;51.654;14.238;2023-04-03T07:38:19;101950.13;;;4.39;73.72
19210;BME280;9738;51.654;14.238;2023-04-03T07:40:49;101947.75;;;4.51;72.72
19210;BME280;9738;51.654;14.238;2023-04-03T07:43:17;101948.88;;;4.82;71.86
19210;BME280;9738;51.654;14.238;2023-04-03T07:45:43;101948.69;;;5.20;71.42
19210;BME280;9738;51.654;14.238;2023-04-03T07:48:11;101947.97;;;5.33;69.33
19210;BME280;9738;51.654;14.238;2023-04-03T07:50:40;101955.16;;;5.31;66.69
19210;BME280;9738;51.654;14.238;2023-04-03T07:53:06;101951.53;;;5.17;67.17
19210;BME280;9738;51.654;14.238;2023-04-03T07:55:32;101953.56;;;4.94;68.70
19210;BME280;9738;51.654;14.238;2023-04-03T07:57:58;101950.75;;;4.80;67.81
19210;BME280;9738;51.654;14.238;2023-04-03T08:00:24;101957.16;;;4.40;69.64
19210;BME280;9738;51.654;14.238;2023-04-03T08:02:50;101960.34;;;4.10;70.65
19210;BME280;9738;51.654;14.238;2023-04-03T08:05:18;101958.19;;;3.80;70.71
19210;BME280;9738;51.654;14.238;2023-04-03T08:07:45;101970.47;;;3.63;71.76
19210;BME280;9738;51.654;14.238;2023-04-03T08:10:11;101966.06;;;3.43;72.41
19210;BME280;9738;51.654;14.238;2023-04-03T08:12:37;101960.00;;;3.41;73.67
19210;BME280;9738;51.654;14.238;2023-04-03T08:15:03;101963.56;;;3.40;73.69
19210;BME280;9738;51.654;14.238;2023-04-03T08:17:29;101958.41;;;3.37;73.46
19210;BME280;9738;51.654;14.238;2023-04-03T08:19:56;101956.50;;;3.40;73.47
19210;BME280;9738;51.654;14.238;2023-04-03T08:22:21;101960.00;;;3.41;73.72
19210;BME280;9738;51.654;14.238;2023-04-03T08:24:47;101960.66;;;3.46;74.11
19210;BME280;9738;51.654;14.238;2023-04-03T08:27:13;101956.16;;;3.48;73.47
19210;BME280;9738;51.654;14.238;2023-04-03T08:29:39;101964.72;;;3.53;73.68
19210;BME280;9738;51.654;14.238;2023-04-03T08:32:05;101959.28;;;3.56;72.56
19210;BME280;9738;51.654;14.238;2023-04-03T08:34:31;101957.59;;;3.55;72.33
19210;BME280;9738;51.654;14.238;2023-04-03T08:37:03;101949.44;;;3.41;73.74
19210;BME280;9738;51.654;14.238;2023-04-03T08:39:28;101965.16;;;3.44;74.03
19210;BME280;9738;51.654;14.238;2023-04-03T08:41:57;101968.56;;;3.46;73.59
19210;BME280;9738;51.654;14.238;2023-04-03T08:47:28;101956.31;;;3.45;74.09
19210;BME280;9738;51.654;14.238;2023-04-03T08:50:04;101962.25;;;3.50;74.51
19210;BME280;9738;51.654;14.238;2023-04-03T08:52:36;101967.75;;;3.64;75.96
19210;BME280;9738;51.654;14.238;2023-04-03T08:55:06;101964.97;;;4.05;75.11
19210;BME280;9738;51.654;14.238;2023-04-03T08:57:42;101963.72;;;4.14;72.13
19210;BME280;9738;51.654;14.238;2023-04-03T09:02:50;101971.66;;;3.95;72.60
19210;BME280;9738;51.654;14.238;2023-04-03T09:05:20;101960.81;;;3.80;73.14
19210;BME280;9738;51.654;14.238;2023-04-03T09:08:00;101960.81;;;3.62;72.69
19210;BME280;9738;51.654;14.238;2023-04-03T09:10:33;101963.09;;;3.50;73.01
19210;BME280;9738;51.654;14.238;2023-04-03T09:15:47;101956.84;;;3.33;74.34
19210;BME280;9738;51.654;14.238;2023-04-03T09:18:21;101967.25;;;3.36;75.01
19210;BME280;9738;51.654;14.238;2023-04-03T09:21:15;101967.00;;;3.42;76.46
19210;BME280;9738;51.654;14.238;2023-04-03T09:23:50;101969.69;;;3.40;75.32
19210;BME280;9738;51.654;14.238;2023-04-03T09:26:30;101962.78;;;3.38;73.34
19210;BME280;9738;51.654;14.238;2023-04-03T09:29:04;101961.19;;;3.34;70.79
19210;BME280;9738;51.654;14.238;2023-04-03T09:31:39;101960.59;;;3.27;70.51
19210;BME280;9738;51.654;14.238;2023-04-03T09:34:32;101961.53;;;3.26;70.51
19210;BME280;9738;51.654;14.238;2023-04-03T09:36:58;101962.59;;;3.22;71.29
19210;BME280;9738;51.654;14.238;2023-04-03T09:39:27;101965.88;;;3.27;69.09
19210;BME280;9738;51.654;14.238;2023-04-03T09:42:19;101961.00;;;3.38;70.08
19210;BME280;9738;51.654;14.238;2023-04-03T09:44:57;101958.72;;;3.49;68.79
19210;BME280;9738;51.654;14.238;2023-04-03T09:47:34;101958.91;;;3.65;66.40
19210;BME280;9738;51.654;14.238;2023-04-03T09:52:44;101963.34;;;3.84;61.93
19210;BME280;9738;51.654;14.238;2023-04-03T09:55:17;101964.97;;;3.86;63.80
19210;BME280;9738;51.654;14.238;2023-04-03T09:57:45;101966.00;;;3.84;62.76
19210;BME280;9738;51.654;14.238;2023-04-03T10:00:23;101955.84;;;3.93;64.70
19210;BME280;9738;51.654;14.238;2023-04-03T10:02:53;101952.25;;;3.94;63.36
19210;BME280;9738;51.654;14.238;2023-04-03T10:10:45;101953.63;;;4.22;65.43
19210;BME280;9738;51.654;14.238;2023-04-03T10:13:19;101942.66;;;4.29;64.64
19210;BME280;9738;51.654;14.238;2023-04-03T10:16:01;101951.44;;;4.30;61.82
19210;BME280;9738;51.654;14.238;2023-04-03T10:21:23;101940.09;;;4.45;58.98
19210;BME280;9738;51.654;14.238;2023-04-03T10:24:08;101944.97;;;4.54;60.19
19210;BME280;9738;51.654;14.238;2023-04-03T10:32:26;101942.34;;;4.72;56.35
19210;BME280;9738;51.654;14.238;2023-04-03T10:35:02;101937.75;;;4.75;55.52
19210;BME280;9738;51.654;14.238;2023-04-03T10:37:38;101932.53;;;4.91;58.41
19210;BME280;9738;51.654;14.238;2023-04-03T10:40:29;101935.06;;;5.27;57.51
19210;BME280;9738;51.654;14.238;2023-04-03T10:45:53;101928.75;;;5.30;55.99
19210;BME280;9738;51.654;14.238;2023-04-03T10:53:52;101935.75;;;5.31;55.08
19210;BME280;9738;51.654;14.238;2023-04-03T10:59:36;101925.09;;;5.15;55.49
19210;BME280;9738;51.654;14.238;2023-04-03T11:02:16;101934.94;;;4.96;55.93
19210;BME280;9738;51.654;14.238;2023-04-03T11:04:48;101928.31;;;5.04;56.06
19210;BME280;9738;51.654;14.238;2023-04-03T11:07:33;101921.22;;;5.22;55.20
19210;BME280;9738;51.654;14.238;2023-04-03T11:10:10;101920.28;;;5.23;52.14
19210;BME280;9738;51.654;14.238;2023-04-03T11:12:56;101917.00;;;5.18;53.24
19210;BME280;9738;51.654;14.238;2023-04-03T11:15:29;101915.75;;;5.08;52.97
19210;BME280;9738;51.654;14.238;2023-04-03T11:18:26;101916.25;;;5.16;54.67
19210;BME280;9738;51.654;14.238;2023-04-03T11:21:02;101924.72;;;5.23;53.40
19210;BME280;9738;51.654;14.238;2023-04-03T11:23:35;101918.72;;;5.19;52.63
19210;BME280;9738;51.654;14.238;2023-04-03T11:26:11;101923.47;;;5.30;55.15
19210;BME280;9738;51.654;14.238;2023-04-03T11:28:38;101920.41;;;5.37;54.61
19210;BME280;9738;51.654;14.238;2023-04-03T11:33:42;101919.34;;;5.24;54.64
19210;BME280;9738;51.654;14.238;2023-04-03T11:36:31;101922.84;;;5.07;53.19
19210;BME280;9738;51.654;14.238;2023-04-03T11:39:02;101915.22;;;5.01;55.01
19210;BME280;9738;51.654;14.238;2023-04-03T11:41:33;101912.66;;;5.00;55.76
19210;BME280;9738;51.654;14.238;2023-04-03T11:44:02;101920.63;;;5.00;55.14
19210;BME280;9738;51.654;14.238;2023-04-03T11:46:53;101912.44;;;5.04;55.12
19210;BME280;9738;51.654;14.238;2023-04-03T11:50:03;101914.81;;;5.09;54.96
19210;BME280;9738;51.654;14.238;2023-04-03T12:13:41;101904.72;;;4.82;54.49
19210;BME280;9738;51.654;14.238;2023-04-03T12:26:47;101897.41;;;5.05;51.86
19210;BME280;9738;51.654;14.238;2023-04-03T12:32:32;101903.75;;;5.18;53.44
19210;BME280;9738;51.654;14.238;2023-04-03T12:35:05;101902.28;;;5.30;53.84
19210;BME280;9738;51.654;14.238;2023-04-03T12:37:57;101898.91;;;5.26;50.79
19210;BME280;9738;51.654;14.238;2023-04-03T12:51:15;101898.28;;;5.21;51.46
19210;BME280;9738;51.654;14.238;2023-04-03T12:53:44;101896.53;;;5.22;51.33
19210;BME280;9738;51.654;14.238;2023-04-03T12:56:25;101905.47;;;5.19;52.23
19210;BME280;9738;51.654;14.238;2023-04-03T12:58:54;101897.06;;;5.28;52.52
19210;BME280;9738;51.654;14.238;2023-04-03T13:01:25;101893.91;;;5.37;51.61
19210;BME280;9738;51.654;14.238;2023-04-03T13:03:58;101888.97;;;5.47;53.21
19210;BME280;9738;51.654;14.238;2023-04-03T13:06:32;101890.84;;;5.45;51.83
19210;BME280;9738;51.654;14.238;2023-04-03T13:09:01;101895.13;;;5.48;51.05
19210;BME280;9738;51.654;14.238;2023-04-03T13:11:34;101901.75;;;5.39;50.96
19210;BME280;9738;51.654;14.238;2023-04-03T13:14:04;101896.66;;;5.36;50.67
19210;BME280;9738;51.654;14.238;2023-04-03T13:16:32;101899.84;;;5.25;50.48
19210;BME280;9738;51.654;14.238;2023-04-03T13:18:59;101900.66;;;5.10;49.83
19210;BME280;9738;51.654;14.238;2023-04-03T13:21:28;101899.97;;;5.06;51.21
19210;BME280;9738;51.654;14.238;2023-04-03T13:23:58;101898.34;;;5.04;49.65
19210;BME280;9738;51.654;14.238;2023-04-03T13:26:28;101899.50;;;4.98;50.36
19210;BME280;9738;51.654;14.238;2023-04-03T13:28:59;101892.75;;;4.93;51.19
19210;BME280;9738;51.654;14.238;2023-04-03T13:31:30;101895.38;;;4.93;51.31
19210;BME280;9738;51.654;14.238;2023-04-03T13:36:39;101895.47;;;4.91;52.24
19210;BME280;9738;51.654;14.238;2023-04-03T13:39:22;101898.34;;;4.86;51.86
19210;BME280;9738;51.654;14.238;2023-04-03T13:41:51;101893.38;;;4.80;52.54
19210;BME280;9738;51.654;14.238;2023-04-03T13:44:26;101891.81;;;4.76;52.47
19210;BME280;9738;51.654;14.238;2023-04-03T13:47:18;101886.69;;;4.73;53.44
19210;BME280;9738;51.654;14.238;2023-04-03T13:52:43;101888.38;;;4.74;53.61
19210;BME280;9738;51.654;14.238;2023-04-03T13:55:20;101882.25;;;4.74;52.83
19210;BME280;9738;51.654;14.238;2023-04-03T14:03:52;101886.44;;;4.43;52.91
19210;BME280;9738;51.654;14.238;2023-04-03T14:06:18;101885.66;;;4.41;53.44
19210;BME280;9738;51.654;14.238;2023-04-03T14:08:45;101888.22;;;4.43;53.25
19210;BME280;9738;51.654;14.238;2023-04-03T14:11:16;101886.03;;;4.51;54.84
19210;BME280;9738;51.654;14.238;2023-04-03T14:13:44;101883.09;;;4.57;53.99
19210;BME280;9738;51.654;14.238;2023-04-03T14:16:22;101883.09;;;4.57;52.52
19210;BME280;9738;51.654;14.238;2023-04-03T14:18:49;101881.56;;;4.53;52.12
19210;BME280;9738;51.654;14.238;2023-04-03T14:21:18;101887.44;;;4.58;54.06
19210;BME280;9738;51.654;14.238;2023-04-03T14:23:45;101874.16;;;4.59;52.13
19210;BME280;9738;51.654;14.238;2023-04-03T14:26:13;101881.56;;;4.53;51.79
19210;BME280;9738;51.654;14.238;2023-04-03T14:28:42;101878.06;;;4.52;51.39
19210;BME280;9738;51.654;14.238;2023-04-03T14:31:10;101876.63;;;4.45;50.37
19210;BME280;9738;51.654;14.238;2023-04-03T14:33:36;101872.22;;;4.46;50.79
19210;BME280;9738;51.654;14.238;2023-04-03T14:36:18;101868.22;;;4.54;51.69
19210;BME280;9738;51.654;14.238;2023-04-03T14:38:46;101866.91;;;4.80;51.73